createdAt,value
2024-02-03T00:00:24.592Z,56.19
2024-02-03T00:02:51.046Z,56.20
2024-02-03T00:05:17.445Z,56.31
2024-02-03T00:07:43.763Z,56.51
2024-02-03T00:10:10.257Z,55.82
2024-02-03T00:12:36.660Z,56.09
2024-02-03T00:15:03.003Z,56.00
2024-02-03T00:17:29.451Z,55.94
2024-02-03T00:19:55.843Z,55.75
2024-02-03T00:22:22.180Z,56.12
2024-02-03T00:24:48.653Z,56.05
2024-02-03T00:27:15.070Z,55.88
2024-02-03T00:29:41.413Z,56.17
2024-02-03T00:32:08.024Z,55.94
2024-02-03T00:34:34.598Z,56.16
2024-02-03T00:37:01.005Z,56.28
2024-02-03T00:39:27.489Z,56.43
2024-02-03T00:41:53.853Z,56.35
2024-02-03T00:44:20.179Z,56.83
2024-02-03T00:46:46.526Z,56.61
2024-02-03T00:49:12.936Z,56.74
2024-02-03T00:51:39.389Z,56.68
2024-02-03T00:54:05.909Z,56.38
2024-02-03T00:56:32.273Z,56.60
2024-02-03T00:58:58.618Z,56.69
2024-02-03T01:01:25.170Z,56.37
2024-02-03T01:03:51.572Z,56.34
2024-02-03T01:06:17.980Z,56.40
2024-02-03T01:08:44.576Z,56.06
2024-02-03T01:11:10.889Z,56.02
2024-02-03T01:13:37.239Z,56.19
2024-02-03T01:16:03.781Z,55.80
2024-02-03T01:18:30.263Z,55.45
2024-02-03T01:20:56.649Z,55.53
2024-02-03T01:23:23.277Z,55.69
2024-02-03T01:25:49.632Z,55.59
2024-02-03T01:28:15.973Z,55.30
2024-02-03T01:30:42.755Z,55.52
2024-02-03T01:33:09.184Z,54.93
2024-02-03T01:35:35.616Z,55.26
2024-02-03T01:38:01.979Z,55.20
2024-02-03T01:40:28.338Z,55.28
2024-02-03T01:42:54.663Z,55.54
2024-02-03T01:45:21.221Z,55.17
2024-02-03T01:47:47.593Z,55.24
2024-02-03T01:50:14.007Z,55.32
2024-02-03T01:52:40.520Z,55.64
2024-02-03T01:55:06.856Z,55.65
2024-02-03T01:57:33.206Z,55.33
2024-02-03T01:59:59.610Z,55.61
2024-02-03T02:02:25.943Z,55.86
2024-02-03T02:04:52.256Z,55.58
2024-02-03T02:07:18.754Z,56.02
2024-02-03T02:09:45.234Z,55.97
2024-02-03T02:12:11.618Z,56.13
2024-02-03T02:14:38.099Z,56.43
2024-02-03T02:17:04.434Z,56.22
2024-02-03T02:19:30.863Z,56.03
2024-02-03T02:21:57.402Z,56.24
2024-02-03T02:24:23.803Z,55.97
2024-02-03T02:26:50.154Z,56.30
2024-02-03T02:29:16.494Z,56.51
2024-02-03T02:31:42.809Z,56.35
2024-02-03T02:34:09.223Z,56.31
2024-02-03T02:36:35.702Z,56.04
2024-02-03T02:39:02.075Z,56.06
2024-02-03T02:41:28.430Z,56.12
2024-02-03T02:43:55.033Z,56.64
2024-02-03T02:46:21.348Z,55.94
2024-02-03T02:48:48.082Z,55.99
2024-02-03T02:51:14.479Z,56.27
2024-02-03T02:53:40.797Z,56.29
2024-02-03T02:56:07.116Z,56.22
2024-02-03T02:58:33.586Z,56.09
2024-02-03T03:01:00.062Z,56.14
2024-02-03T03:03:26.624Z,56.47
2024-02-03T03:05:53.116Z,56.01
2024-02-03T03:08:19.550Z,56.01
2024-02-03T03:10:45.882Z,55.77
2024-02-03T03:13:12.352Z,55.47
2024-02-03T03:15:38.767Z,55.09
2024-02-03T03:18:05.200Z,55.10
2024-02-03T03:20:31.705Z,54.84
2024-02-03T03:22:58.072Z,55.07
2024-02-03T03:25:24.398Z,54.91
2024-02-03T03:27:50.804Z,55.38
2024-02-03T03:30:17.253Z,55.62
2024-02-03T03:32:43.628Z,55.75
2024-02-03T03:35:10.134Z,55.57
2024-02-03T03:37:36.462Z,55.74
2024-02-03T03:40:02.801Z,55.10
2024-02-03T03:42:29.291Z,55.29
2024-02-03T03:44:55.636Z,55.46
2024-02-03T03:47:21.982Z,55.50
2024-02-03T03:49:48.470Z,55.77
2024-02-03T03:52:14.859Z,55.64
2024-02-03T03:54:41.607Z,55.43
2024-02-03T03:57:08.631Z,55.74
2024-02-03T03:59:34.973Z,56.03
2024-02-03T04:02:01.300Z,55.99
2024-02-03T04:04:27.931Z,55.97
2024-02-03T04:06:54.324Z,55.96
2024-02-03T04:09:20.694Z,55.91
2024-02-03T04:11:47.244Z,56.31
2024-02-03T04:14:13.584Z,55.84
2024-02-03T04:16:39.928Z,56.01
2024-02-03T04:19:06.561Z,55.79
2024-02-03T04:21:33.293Z,56.17
2024-02-03T04:23:59.708Z,55.82
2024-02-03T04:26:26.048Z,56.04
2024-02-03T04:28:52.363Z,55.72
2024-02-03T04:31:18.711Z,55.65
2024-02-03T04:33:45.186Z,55.61
2024-02-03T04:36:11.636Z,55.88
2024-02-03T04:38:37.983Z,56.08
2024-02-03T04:41:04.408Z,56.22
2024-02-03T04:43:30.744Z,56.20
2024-02-03T04:45:57.097Z,55.89
2024-02-03T04:48:23.797Z,56.19
2024-02-03T04:50:50.225Z,56.14
2024-02-03T04:53:16.547Z,55.80
2024-02-03T04:55:42.910Z,56.13
2024-02-03T04:58:09.226Z,55.59
2024-02-03T05:00:35.615Z,55.86
2024-02-03T05:03:01.971Z,55.60
2024-02-03T05:05:28.296Z,55.43
2024-02-03T05:07:54.620Z,56.08
2024-02-03T05:10:21.054Z,55.84
2024-02-03T05:12:47.424Z,55.60
2024-02-03T05:15:13.881Z,55.32
2024-02-03T05:17:40.744Z,56.51
2024-02-03T05:20:07.133Z,55.99
2024-02-03T05:22:33.464Z,56.54
2024-02-03T05:24:59.960Z,55.70
2024-02-03T05:27:26.328Z,56.00
2024-02-03T05:29:52.662Z,56.81
2024-02-03T05:32:19.013Z,56.79
2024-02-03T05:34:45.417Z,56.89
2024-02-03T05:37:11.819Z,56.93
2024-02-03T05:39:38.299Z,56.69
2024-02-03T05:42:04.697Z,56.69
2024-02-03T05:44:31.040Z,56.46
2024-02-03T05:46:57.461Z,56.40
2024-02-03T05:49:23.834Z,56.81
2024-02-03T05:51:50.283Z,57.31
2024-02-03T05:54:16.702Z,57.15
2024-02-03T05:56:43.047Z,56.95
2024-02-03T05:59:26.689Z,56.98
2024-02-03T06:01:57.002Z,56.62
2024-02-03T06:04:24.509Z,56.82
2024-02-03T06:06:50.971Z,57.07
2024-02-03T06:09:17.531Z,56.99
2024-02-03T06:11:43.874Z,56.98
2024-02-03T06:14:10.209Z,57.14
2024-02-03T06:16:36.667Z,57.19
2024-02-03T06:19:03.096Z,56.91
2024-02-03T06:21:29.499Z,56.91
2024-02-03T06:23:55.845Z,56.85
2024-02-03T06:26:22.167Z,56.65
2024-02-03T06:28:48.513Z,56.55
2024-02-03T06:31:14.842Z,56.53
2024-02-03T06:33:41.285Z,56.22
2024-02-03T06:36:07.748Z,56.13
2024-02-03T06:38:34.059Z,56.15
2024-02-03T06:41:00.413Z,56.14
2024-02-03T06:43:26.753Z,56.52
2024-02-03T06:45:53.191Z,56.39
2024-02-03T06:48:19.776Z,56.80
2024-02-03T06:50:46.200Z,56.52
2024-02-03T06:53:12.631Z,56.04
2024-02-03T06:55:38.948Z,56.46
2024-02-03T06:58:05.283Z,56.33
2024-02-03T07:00:31.678Z,56.08
2024-02-03T07:02:58.040Z,56.24
2024-02-03T07:05:24.381Z,56.10
2024-02-03T07:07:50.719Z,56.20
2024-02-03T07:10:17.034Z,55.76
2024-02-03T07:12:43.384Z,55.49
2024-02-03T07:15:09.778Z,56.33
2024-02-03T07:17:36.185Z,56.03
2024-02-03T07:20:02.503Z,55.83
2024-02-03T07:22:28.822Z,56.04
2024-02-03T07:24:55.264Z,56.11
2024-02-03T07:27:21.625Z,55.98
2024-02-03T07:29:47.967Z,56.43
2024-02-03T07:32:14.307Z,56.95
2024-02-03T07:34:40.850Z,56.61
2024-02-03T07:37:07.324Z,56.57
2024-02-03T07:39:33.745Z,56.40
2024-02-03T07:42:00.106Z,56.64
2024-02-03T07:44:26.442Z,56.87
2024-02-03T07:46:52.788Z,57.13
2024-02-03T07:49:19.213Z,57.48
2024-02-03T07:51:45.617Z,58.51
2024-02-03T07:54:11.990Z,58.96
2024-02-03T07:56:38.337Z,58.96
2024-02-03T07:59:04.754Z,58.91
2024-02-03T08:01:31.099Z,58.01
2024-02-03T08:03:57.581Z,58.28
2024-02-03T08:06:24.129Z,58.15
2024-02-03T08:08:50.517Z,58.41
2024-02-03T08:11:16.921Z,58.32
2024-02-03T08:13:43.258Z,58.03
2024-02-03T08:16:09.633Z,57.48
2024-02-03T08:18:36.066Z,57.18
2024-02-03T08:21:02.466Z,57.15
2024-02-03T08:23:28.832Z,56.59
2024-02-03T08:25:55.150Z,57.48
2024-02-03T08:28:21.480Z,58.49
2024-02-03T08:30:47.865Z,57.78
2024-02-03T08:33:14.492Z,58.33
2024-02-03T08:35:41.204Z,58.08
2024-02-03T08:38:07.609Z,58.00
2024-02-03T08:40:34.017Z,58.44
2024-02-03T08:43:00.435Z,58.58
2024-02-03T08:45:26.775Z,58.16
2024-02-03T08:47:53.337Z,57.69
2024-02-03T08:50:19.775Z,58.08
2024-02-03T08:52:46.102Z,57.77
2024-02-03T08:55:12.450Z,56.86
2024-02-03T08:57:38.815Z,56.63
2024-02-03T09:00:05.163Z,55.56
2024-02-03T09:02:31.477Z,54.92
2024-02-03T09:04:57.807Z,53.47
2024-02-03T09:07:24.154Z,53.21
2024-02-03T09:09:50.585Z,53.43
2024-02-03T09:12:16.975Z,53.63
2024-02-03T09:14:43.300Z,52.82
2024-02-03T09:17:09.658Z,52.86
2024-02-03T09:19:36.149Z,52.15
2024-02-03T09:22:02.615Z,51.81
2024-02-03T09:24:29.731Z,50.63
2024-02-03T09:26:56.111Z,51.05
2024-02-03T09:29:22.577Z,50.71
2024-02-03T09:31:48.931Z,50.21
2024-02-03T09:34:15.448Z,49.03
2024-02-03T09:39:11.184Z,48.21
2024-02-03T09:41:37.660Z,46.64
2024-02-03T09:44:03.983Z,46.22
2024-02-03T09:46:30.312Z,46.04
2024-02-03T09:48:56.738Z,44.94
2024-02-03T09:51:23.145Z,44.80
2024-02-03T09:53:49.511Z,44.57
2024-02-03T09:56:15.846Z,44.16
2024-02-03T09:58:42.876Z,44.12
2024-02-03T10:01:09.609Z,43.35
2024-02-03T10:03:36.089Z,42.46
2024-02-03T10:06:02.515Z,42.47
2024-02-03T10:08:28.860Z,42.86
2024-02-03T10:10:55.332Z,40.58
2024-02-03T10:13:21.736Z,41.12
2024-02-03T10:15:48.136Z,42.04
2024-02-03T10:18:14.613Z,40.11
2024-02-03T10:20:41.012Z,39.80
2024-02-03T10:23:07.411Z,39.53
2024-02-03T10:25:33.763Z,41.24
2024-02-03T10:28:00.155Z,40.10
2024-02-03T10:30:26.533Z,39.66
2024-02-03T10:32:52.946Z,40.11
2024-02-03T10:35:19.358Z,40.57
2024-02-03T10:37:45.730Z,40.50
2024-02-03T10:40:12.061Z,40.50
2024-02-03T10:42:38.432Z,38.52
2024-02-03T10:45:04.794Z,39.59
2024-02-03T10:47:31.241Z,38.98
2024-02-03T10:49:57.723Z,39.46
2024-02-03T10:52:24.157Z,38.23
2024-02-03T10:54:50.539Z,37.77
2024-02-03T10:57:16.991Z,36.60
2024-02-03T10:59:43.318Z,37.33
2024-02-03T11:02:09.634Z,36.86
2024-02-03T11:04:36.251Z,36.25
2024-02-03T11:07:02.606Z,37.43
2024-02-03T11:09:28.953Z,36.91
2024-02-03T11:11:55.312Z,36.18
2024-02-03T11:14:21.672Z,36.23
2024-02-03T11:16:48.106Z,34.83
2024-02-03T11:19:14.621Z,34.36
2024-02-03T11:21:41.067Z,34.57
2024-02-03T11:24:07.414Z,34.85
2024-02-03T11:26:33.745Z,34.48
2024-02-03T11:29:00.794Z,35.85
2024-02-03T11:31:27.235Z,34.65
2024-02-03T11:33:53.714Z,34.20
2024-02-03T11:36:20.240Z,32.67
2024-02-03T11:38:46.609Z,33.53
2024-02-03T11:41:12.959Z,34.19
2024-02-03T11:43:39.280Z,33.76
2024-02-03T11:46:05.771Z,32.89
2024-02-03T11:48:32.225Z,32.67
2024-02-03T11:50:58.642Z,33.51
2024-02-03T11:53:25.017Z,33.90
2024-02-03T11:55:51.364Z,33.01
2024-02-03T11:58:17.699Z,33.05
2024-02-03T12:00:44.073Z,32.95
2024-02-03T12:03:10.561Z,33.43
2024-02-03T12:05:36.902Z,32.98
2024-02-03T12:08:03.527Z,32.91
2024-02-03T12:10:29.985Z,32.61
2024-02-03T12:12:56.386Z,32.84
2024-02-03T12:15:22.811Z,31.14
2024-02-03T12:17:49.265Z,32.44
2024-02-03T12:20:15.655Z,30.06
2024-02-03T12:22:41.993Z,30.68
2024-02-03T12:25:08.385Z,28.42
2024-02-03T12:27:34.815Z,28.44
2024-02-03T12:30:01.169Z,27.62
2024-02-03T12:32:27.744Z,28.12
2024-02-03T12:34:54.203Z,27.43
2024-02-03T12:37:20.589Z,27.43
2024-02-03T12:39:46.973Z,27.14
2024-02-03T12:42:13.355Z,28.85
2024-02-03T12:44:39.780Z,28.14
2024-02-03T12:47:06.112Z,28.19
2024-02-03T12:49:32.568Z,28.30
2024-02-03T12:51:58.977Z,28.91
2024-02-03T12:54:25.376Z,29.50
2024-02-03T12:56:51.809Z,29.35
2024-02-03T12:59:18.122Z,30.41
2024-02-03T13:01:44.493Z,30.62
2024-02-03T13:04:10.949Z,30.14
2024-02-03T13:06:37.349Z,29.50
2024-02-03T13:09:03.731Z,30.65
2024-02-03T13:11:30.077Z,30.10
2024-02-03T13:13:56.392Z,31.19
2024-02-03T13:16:22.716Z,29.52
2024-02-03T13:18:49.048Z,29.51
2024-02-03T13:21:15.576Z,29.60
2024-02-03T13:23:42.005Z,29.44
2024-02-03T13:26:08.333Z,30.71
2024-02-03T13:28:34.670Z,28.69
2024-02-03T13:31:01.129Z,30.87
2024-02-03T13:33:27.712Z,29.83
2024-02-03T13:35:54.087Z,30.09
2024-02-03T13:38:20.413Z,28.53
2024-02-03T13:40:46.734Z,29.48
2024-02-03T13:43:13.049Z,29.90
2024-02-03T13:45:39.392Z,30.37
2024-02-03T13:48:05.773Z,30.32
2024-02-03T13:50:32.203Z,30.99
2024-02-03T13:52:58.560Z,30.45
2024-02-03T13:55:24.944Z,31.11
2024-02-03T13:57:51.299Z,30.08
2024-02-03T14:00:17.792Z,30.86
2024-02-03T14:02:44.235Z,29.56
2024-02-03T14:05:10.636Z,29.54
2024-02-03T14:07:36.982Z,30.81
2024-02-03T14:10:03.405Z,30.88
2024-02-03T14:12:29.808Z,29.53
2024-02-03T14:14:56.308Z,30.78
2024-02-03T14:17:22.654Z,31.90
2024-02-03T14:19:49.173Z,29.14
2024-02-03T14:22:15.726Z,28.53
2024-02-03T14:24:42.092Z,29.30
2024-02-03T14:27:08.456Z,30.36
2024-02-03T14:29:34.770Z,29.50
2024-02-03T14:32:01.093Z,30.63
2024-02-03T14:34:27.545Z,30.84
2024-02-03T14:36:54.102Z,30.59
2024-02-03T14:39:20.653Z,30.35
2024-02-03T14:41:47.007Z,29.61
2024-02-03T14:44:13.366Z,29.98
2024-02-03T14:46:39.757Z,30.59
2024-02-03T14:49:06.178Z,29.04
2024-02-03T14:51:33.696Z,30.96
2024-02-03T14:54:00.209Z,31.44
2024-02-03T14:56:26.559Z,30.37
2024-02-03T14:58:52.874Z,31.80
2024-02-03T15:01:19.311Z,32.39
2024-02-03T15:03:45.923Z,32.81
2024-02-03T15:06:12.303Z,31.42
2024-02-03T15:08:38.629Z,32.07
2024-02-03T15:11:04.975Z,31.97
2024-02-03T15:13:31.304Z,31.51
2024-02-03T15:15:57.729Z,31.83
2024-02-03T15:18:24.209Z,32.45
2024-02-03T15:20:50.570Z,33.01
2024-02-03T15:23:16.904Z,32.67
2024-02-03T15:25:43.222Z,32.83
2024-02-03T15:28:09.778Z,33.16
2024-02-03T15:30:37.896Z,32.88
2024-02-03T15:33:04.309Z,32.68
2024-02-03T15:35:30.794Z,33.52
2024-02-03T15:37:57.274Z,33.27
2024-02-03T15:40:25.790Z,33.87
2024-02-03T15:42:58.122Z,33.59
2024-02-03T15:45:25.232Z,33.93
2024-02-03T15:47:51.656Z,33.88
2024-02-03T15:50:18.147Z,33.56
2024-02-03T15:52:44.541Z,33.33
2024-02-03T15:55:11.150Z,33.78
2024-02-03T15:57:37.659Z,34.46
2024-02-03T16:00:04.048Z,34.69
2024-02-03T16:02:30.354Z,34.85
2024-02-03T16:04:56.926Z,34.66
2024-02-03T16:07:23.735Z,34.57
2024-02-03T16:09:50.125Z,35.04
2024-02-03T16:12:16.558Z,35.94
2024-02-03T16:14:42.994Z,35.82
2024-02-03T16:17:09.389Z,36.25
2024-02-03T16:19:35.829Z,36.82
2024-02-03T16:22:05.837Z,37.04
2024-02-03T16:24:32.827Z,36.97
2024-02-03T16:26:59.194Z,36.71
2024-02-03T16:29:25.591Z,37.07
2024-02-03T16:31:52.065Z,37.20
2024-02-03T16:34:18.591Z,37.55
2024-02-03T16:36:45.158Z,38.17
2024-02-03T16:39:11.547Z,37.78
2024-02-03T16:41:37.876Z,37.97
2024-02-03T16:44:04.198Z,38.08
2024-02-03T16:46:30.513Z,38.06
2024-02-03T16:48:56.862Z,38.53
2024-02-03T16:51:23.347Z,39.01
2024-02-03T16:53:49.689Z,38.96
2024-02-03T16:56:16.057Z,38.77
2024-02-03T16:58:42.399Z,39.50
2024-02-03T17:01:08.960Z,39.63
2024-02-03T17:03:35.545Z,39.86
2024-02-03T17:06:02.850Z,40.38
2024-02-03T17:08:30.263Z,40.38
2024-02-03T17:10:56.601Z,40.26
2024-02-03T17:13:22.919Z,40.48
2024-02-03T17:15:49.308Z,40.53
2024-02-03T17:18:16.180Z,40.83
2024-02-03T17:20:42.596Z,41.23
2024-02-03T17:23:08.990Z,40.67
2024-02-03T17:25:35.321Z,41.10
2024-02-03T17:28:01.736Z,40.74
2024-02-03T17:30:28.185Z,40.70
2024-02-03T17:32:55.059Z,40.38
2024-02-03T17:35:21.404Z,40.60
2024-02-03T17:37:47.720Z,40.60
2024-02-03T17:40:14.084Z,40.68
2024-02-03T17:42:40.439Z,40.44
2024-02-03T17:45:06.779Z,40.63
2024-02-03T17:47:33.153Z,40.55
2024-02-03T17:49:59.720Z,40.17
2024-02-03T17:52:26.434Z,40.31
2024-02-03T17:54:52.792Z,40.73
2024-02-03T17:57:19.534Z,40.21
2024-02-03T17:59:45.877Z,40.77
2024-02-03T18:02:12.198Z,40.39
2024-02-03T18:04:38.569Z,40.47
2024-02-03T18:07:04.930Z,40.83
2024-02-03T18:09:31.610Z,40.79
2024-02-03T18:11:57.939Z,40.64
2024-02-03T18:14:24.357Z,40.56
2024-02-03T18:16:50.716Z,40.66
2024-02-03T18:19:17.138Z,40.74
2024-02-03T18:21:43.642Z,41.11
2024-02-03T18:24:10.006Z,41.08
2024-02-03T18:26:36.373Z,41.47
2024-02-03T18:29:02.778Z,42.19
2024-02-03T18:31:29.182Z,42.21
2024-02-03T18:33:55.698Z,42.28
2024-02-03T18:36:22.213Z,42.54
2024-02-03T18:38:48.559Z,42.24
2024-02-03T18:41:14.888Z,42.11
2024-02-03T18:43:41.224Z,41.53
2024-02-03T18:46:07.612Z,42.36
2024-02-03T18:48:34.267Z,42.15
2024-02-03T18:51:00.905Z,42.03
2024-02-03T18:53:27.225Z,41.90
2024-02-03T18:55:53.544Z,41.65
2024-02-03T18:58:19.865Z,41.87
2024-02-03T19:00:46.240Z,42.12
2024-02-03T19:03:12.778Z,41.69
2024-02-03T19:05:39.246Z,42.31
2024-02-03T19:08:05.636Z,42.42
2024-02-03T19:10:31.993Z,42.05
2024-02-03T19:12:58.357Z,42.35
2024-02-03T19:15:24.894Z,42.59
2024-02-03T19:17:51.324Z,42.46
2024-02-03T19:20:17.862Z,43.13
2024-02-03T19:22:44.289Z,43.33
2024-02-03T19:25:10.635Z,43.08
2024-02-03T19:27:37.023Z,43.46
2024-02-03T19:30:03.632Z,43.42
2024-02-03T19:32:29.951Z,42.83
2024-02-03T19:34:56.392Z,43.14
2024-02-03T19:37:22.773Z,43.36
2024-02-03T19:39:49.204Z,43.31
2024-02-03T19:42:15.607Z,43.43
2024-02-03T19:44:42.141Z,43.53
2024-02-03T19:47:08.476Z,43.87
2024-02-03T19:49:34.937Z,43.71
2024-02-03T19:52:01.550Z,44.03
2024-02-03T19:54:27.986Z,44.34
2024-02-03T19:56:54.429Z,44.44
2024-02-03T19:59:20.753Z,44.58
2024-02-03T20:01:47.409Z,44.74
2024-02-03T20:04:14.140Z,44.59
2024-02-03T20:06:40.705Z,44.96
2024-02-03T20:09:07.437Z,44.54
2024-02-03T20:11:33.945Z,44.46
2024-02-03T20:14:00.372Z,44.50
2024-02-03T20:16:26.912Z,44.36
2024-02-03T20:18:53.502Z,44.48
2024-02-03T20:21:20.011Z,44.28
2024-02-03T20:23:46.404Z,45.18
2024-02-03T20:26:13.171Z,44.95
2024-02-03T20:28:40.149Z,44.98
2024-02-03T20:31:06.571Z,44.99
2024-02-03T20:33:33.122Z,45.25
2024-02-03T20:35:59.567Z,45.30
2024-02-03T20:38:25.946Z,45.41
2024-02-03T20:40:52.382Z,44.92
2024-02-03T20:43:18.970Z,45.47
2024-02-03T20:45:45.547Z,45.12
2024-02-03T20:48:12.019Z,45.09
2024-02-03T20:50:38.580Z,44.81
2024-02-03T20:53:05.131Z,44.68
2024-02-03T20:55:31.608Z,44.82
2024-02-03T20:57:58.081Z,45.17
2024-02-03T21:00:24.598Z,45.27
2024-02-03T21:02:51.088Z,45.25
2024-02-03T21:05:17.658Z,45.24
2024-02-03T21:07:44.199Z,45.24
2024-02-03T21:10:10.868Z,45.10
2024-02-03T21:12:37.399Z,45.59
2024-02-03T21:15:03.834Z,45.78
2024-02-03T21:17:30.357Z,45.81
2024-02-03T21:19:56.906Z,45.69
2024-02-03T21:22:23.454Z,45.78
2024-02-03T21:24:49.831Z,45.37
2024-02-03T21:27:16.263Z,45.54
2024-02-03T21:29:42.589Z,45.48
2024-02-03T21:32:08.973Z,45.83
2024-02-03T21:34:35.356Z,46.05
2024-02-03T21:37:01.842Z,45.72
2024-02-03T21:39:28.382Z,45.89
2024-02-03T21:41:54.703Z,45.73
2024-02-03T21:44:21.027Z,45.45
2024-02-03T21:46:47.353Z,45.33
2024-02-03T21:49:13.834Z,45.25
2024-02-03T21:51:40.362Z,45.73
2024-02-03T21:54:06.750Z,45.77
2024-02-03T21:56:33.084Z,46.06
2024-02-03T21:58:59.415Z,45.64
2024-02-03T22:01:25.822Z,45.72
2024-02-03T22:03:52.272Z,45.76
2024-02-03T22:06:18.675Z,45.23
2024-02-03T22:08:45.268Z,45.46
2024-02-03T22:11:11.608Z,45.65
2024-02-03T22:13:37.939Z,45.41
2024-02-03T22:16:04.434Z,45.74
2024-02-03T22:18:30.926Z,46.10
2024-02-03T22:20:57.334Z,46.54
2024-02-03T22:23:23.662Z,46.61
2024-02-03T22:25:49.991Z,47.01
2024-02-03T22:28:16.498Z,46.99
2024-02-03T22:30:42.948Z,47.01
2024-02-03T22:33:09.374Z,46.96
2024-02-03T22:35:35.743Z,47.39
2024-02-03T22:38:02.060Z,47.29
2024-02-03T22:40:28.397Z,47.77
2024-02-03T22:42:54.772Z,47.15
2024-02-03T22:45:21.318Z,47.01
2024-02-03T22:47:47.772Z,47.45
2024-02-03T22:50:14.117Z,47.73
2024-02-03T22:52:40.458Z,47.04
2024-02-03T22:55:06.798Z,47.07
2024-02-03T22:57:33.715Z,47.40
2024-02-03T23:00:00.147Z,47.11
2024-02-03T23:02:26.525Z,47.63
2024-02-03T23:04:52.943Z,47.19
2024-02-03T23:07:19.336Z,47.34
2024-02-03T23:09:45.767Z,47.20
2024-02-03T23:12:12.154Z,46.98
2024-02-03T23:14:38.700Z,47.24
2024-02-03T23:17:05.046Z,47.12
2024-02-03T23:19:31.489Z,47.37
2024-02-03T23:21:58.020Z,47.01
2024-02-03T23:24:24.477Z,46.75
2024-02-03T23:26:50.934Z,46.90
2024-02-03T23:29:17.290Z,46.77
2024-02-03T23:31:43.629Z,46.75
2024-02-03T23:34:10.057Z,46.98
2024-02-03T23:36:36.427Z,46.80
2024-02-03T23:39:02.761Z,46.61
2024-02-03T23:41:29.072Z,46.68
2024-02-03T23:43:55.409Z,47.03
2024-02-03T23:46:21.760Z,46.82
2024-02-03T23:48:48.189Z,47.30
2024-02-03T23:51:14.649Z,47.06
2024-02-03T23:53:40.969Z,46.71
2024-02-03T23:56:07.383Z,47.21
2024-02-03T23:58:33.761Z,47.25
